Time;durP1;ratioP1;P1;durP2;ratioP2;P2;SDS_P1;SDS_P2;PMS_P1;PMS_P2;Temp;Humidity;BMP_temperature;BMP_pressure;BME280_temperature;BME280_humidity;BME280_pressure;Samples;Min_cycle;Max_cycle;Signal;HPM_P1;HPM_P2
2021/06/17 00:02:56;;;;;;;23.18;11.65;;;;;;;18.31;100.00;99643.43;1703709;84;21312;-77
2021/06/17 00:06:01;;;;;;;18.90;10.72;;;;;;;18.32;100.00;99665.03;1703611;84;21879;-77
2021/06/17 00:09:08;;;;;;;18.30;10.08;;;;;;;18.31;100.00;99657.81;1704180;84;21358;-77
2021/06/17 00:12:16;;;;;;;19.67;9.60;;;;;;;18.32;100.00;99674.72;1703745;84;21320;-78
2021/06/17 00:15:20;;;;;;;12.50;9.18;;;;;;;18.31;100.00;99675.81;1704898;84;21332;-78
2021/06/17 00:18:26;;;;;;;12.82;9.23;;;;;;;18.32;100.00;99674.72;1704992;84;21237;-78
2021/06/17 00:21:31;;;;;;;13.48;8.85;;;;;;;18.32;100.00;99669.18;1703523;83;21273;-77
2021/06/17 00:24:37;;;;;;;12.60;8.08;;;;;;;18.32;100.00;99656.72;1703937;84;22622;-78
2021/06/17 00:27:43;;;;;;;14.93;8.78;;;;;;;18.34;100.00;99635.16;1704974;84;21205;-79
2021/06/17 00:30:50;;;;;;;12.95;7.83;;;;;;;18.35;100.00;99629.95;1703674;84;21316;-79
2021/06/17 00:33:55;;;;;;;13.20;7.15;;;;;;;18.36;100.00;99634.39;1703654;84;21344;-79
2021/06/17 00:37:01;;;;;;;13.93;8.18;;;;;;;18.38;100.00;99626.67;1704185;84;21356;-79
2021/06/17 00:40:05;;;;;;;15.00;8.63;;;;;;;18.39;100.00;99609.80;1703785;84;21334;-79
2021/06/17 00:43:10;;;;;;;17.05;8.18;;;;;;;18.39;100.00;99610.35;1705065;84;21312;-78
2021/06/17 00:46:16;;;;;;;17.07;8.35;;;;;;;18.38;100.00;99604.52;1703743;84;21335;-79
2021/06/17 00:49:22;;;;;;;16.95;8.23;;;;;;;18.38;100.00;99606.75;1705257;84;21317;-79
2021/06/17 00:52:28;;;;;;;20.02;8.25;;;;;;;18.40;100.00;99612.06;1705184;84;21316;-79
2021/06/17 00:55:33;;;;;;;18.60;7.78;;;;;;;18.41;100.00;99622.04;1703714;84;21342;-78
2021/06/17 00:58:39;;;;;;;16.20;7.62;;;;;;;18.40;100.00;99623.13;1705221;84;21316;-78
2021/06/17 01:01:45;;;;;;;9.28;6.65;;;;;;;18.39;100.00;99620.04;1705241;84;21359;-78
2021/06/17 01:04:50;;;;;;;14.18;7.17;;;;;;;18.37;100.00;99628.60;1705242;84;21319;-77
2021/06/17 01:08:16;;;;;;;12.33;5.53;;;;;;;18.37;99.96;99623.61;1703921;84;21347;-78
2021/06/17 01:11:51;;;;;;;16.65;6.03;;;;;;;18.36;99.71;99630.24;1705214;84;21824;-78
2021/06/17 01:15:16;;;;;;;9.93;5.92;;;;;;;18.33;99.52;99628.78;1705293;84;21367;-78
2021/06/17 01:18:23;;;;;;;10.20;5.70;;;;;;;18.32;99.32;99632.65;1703976;84;21322;-77
2021/06/17 01:21:46;;;;;;;8.03;5.15;;;;;;;18.30;99.14;99636.73;1703647;84;21351;-78
2021/06/17 01:25:38;;;;;;;12.73;4.75;;;;;;;18.29;99.07;99656.66;1704535;84;21890;-78
2021/06/17 01:28:43;;;;;;;8.95;4.78;;;;;;;18.27;98.97;99659.38;1705282;84;21240;-77
2021/06/17 01:31:49;;;;;;;13.55;4.85;;;;;;;18.26;98.93;99652.17;1705589;84;21213;-78
2021/06/17 01:34:56;;;;;;;9.68;4.37;;;;;;;18.26;98.84;99657.70;1705156;84;21308;-78
2021/06/17 01:38:06;;;;;;;11.90;4.17;;;;;;;18.26;98.76;99661.86;1704094;84;21875;-78
2021/06/17 01:41:11;;;;;;;9.33;4.33;;;;;;;18.27;98.63;99663.53;1704060;84;21233;-78
2021/06/17 01:44:16;;;;;;;10.15;3.45;;;;;;;18.27;98.52;99671.84;1705144;84;21327;-77
2021/06/17 01:47:22;;;;;;;12.03;4.58;;;;;;;18.28;98.46;99673.52;1704644;84;21225;-78
2021/06/17 01:50:31;;;;;;;6.92;4.00;;;;;;;18.29;98.36;99672.42;1705246;84;21201;-77
2021/06/17 01:53:35;;;;;;;15.23;3.98;;;;;;;18.30;98.24;99678.25;1683254;84;21319;-77
2021/06/17 01:56:41;;;;;;;11.18;3.50;;;;;;;18.30;98.16;99669.95;1703844;84;21325;-78
2021/06/17 01:59:46;;;;;;;11.03;3.98;;;;;;;18.32;98.00;99670.02;1705143;84;21315;-78
2021/06/17 02:02:52;;;;;;;10.40;4.17;;;;;;;18.34;97.83;99678.07;1705071;84;21315;-77
2021/06/17 02:05:57;;;;;;;8.80;4.28;;;;;;;18.33;97.68;99674.47;1705004;84;21372;-78
2021/06/17 02:09:05;;;;;;;14.23;3.95;;;;;;;18.30;97.87;99676.36;1705201;84;21323;-78
2021/06/17 02:12:10;;;;;;;7.83;3.87;;;;;;;18.29;98.31;99667.73;1705130;84;21185;-78
2021/06/17 02:15:16;;;;;;;11.25;4.22;;;;;;;18.30;98.78;99651.95;1705207;84;21205;-78
2021/06/17 02:18:25;;;;;;;7.40;3.60;;;;;;;18.28;99.19;99655.52;1704356;84;21307;-78
2021/06/17 02:21:31;;;;;;;7.58;3.65;;;;;;;18.24;99.48;99657.09;1704787;84;21333;-78
2021/06/17 02:24:38;;;;;;;12.60;4.00;;;;;;;18.22;99.73;99649.58;1705249;84;21807;-78
2021/06/17 02:27:44;;;;;;;8.48;3.33;;;;;;;18.22;99.97;99652.34;1704577;84;21784;-78
2021/06/17 02:30:52;;;;;;;7.83;3.42;;;;;;;18.22;100.00;99655.95;1705088;84;21311;-77
2021/06/17 02:33:56;;;;;;;12.25;3.55;;;;;;;18.23;100.00;99666.48;1705120;84;21311;-78
2021/06/17 02:37:02;;;;;;;9.25;3.60;;;;;;;18.21;100.00;99665.34;1705080;84;21312;-78
2021/06/17 02:40:07;;;;;;;13.50;3.40;;;;;;;18.20;100.00;99652.56;1683265;84;21209;-78
2021/06/17 02:43:17;;;;;;;11.18;3.50;;;;;;;18.20;100.00;99643.42;1704980;83;21312;-78
2021/06/17 02:46:25;;;;;;;9.28;3.42;;;;;;;18.21;100.00;99647.88;1705149;84;21331;-78
2021/06/17 02:49:31;;;;;;;11.78;4.03;;;;;;;18.21;100.00;99651.51;1705036;84;21847;-78
2021/06/17 02:52:37;;;;;;;4.85;2.98;;;;;;;18.22;100.00;99641.27;1706066;84;21324;-78
2021/06/17 02:55:43;;;;;;;9.60;4.10;;;;;;;18.22;100.00;99637.13;1703955;84;21644;-77
2021/06/17 02:59:25;;;;;;;5.83;3.67;;;;;;;18.23;99.97;99645.72;1703823;84;21205;-78
2021/06/17 03:02:53;;;;;;;9.73;3.87;;;;;;;18.23;99.98;99627.73;1703776;84;21648;-78
2021/06/17 03:06:34;;;;;;;9.45;3.30;;;;;;;18.20;99.75;99630.97;1705065;84;21311;-78
2021/06/17 03:09:50;;;;;;;9.08;4.33;;;;;;;18.16;99.66;99632.53;1703798;84;21894;-78
2021/06/17 03:12:56;;;;;;;9.10;4.05;;;;;;;18.13;100.00;99626.41;1705369;83;21304;-77
2021/06/17 03:16:01;;;;;;;17.62;4.67;;;;;;;18.11;100.00;99639.67;1703695;83;21252;-77
2021/06/17 03:19:08;;;;;;;10.80;4.33;;;;;;;18.04;100.00;99650.00;1706647;83;21181;-77
2021/06/17 03:22:18;;;;;;;16.27;4.62;;;;;;;17.96;100.00;99665.58;1709735;82;21306;-78
2021/06/17 03:25:26;;;;;;;11.30;4.85;;;;;;;17.91;100.00;99686.20;1663500;86;21368;-78
2021/06/17 03:28:32;;;;;;;16.23;4.55;;;;;;;17.85;100.00;99690.77;1663214;86;21230;-77
2021/06/17 03:31:36;;;;;;;10.68;4.45;;;;;;;17.81;100.00;99702.55;1681422;85;21171;-78
2021/06/17 03:34:40;;;;;;;10.03;4.95;;;;;;;17.76;100.00;99701.89;1691153;85;21301;-77
2021/06/17 03:37:46;;;;;;;11.78;4.47;;;;;;;17.71;100.00;99698.95;1692620;85;21226;-77
2021/06/17 03:40:52;;;;;;;8.98;4.55;;;;;;;17.69;100.00;99692.84;1692510;85;21203;-77
2021/06/17 03:43:57;;;;;;;8.25;3.98;;;;;;;17.70;100.00;99711.66;1665110;86;21341;-77
2021/06/17 03:47:04;;;;;;;9.33;4.40;;;;;;;17.71;100.00;99714.17;1684810;85;21289;-77
2021/06/17 03:50:10;;;;;;;9.30;4.58;;;;;;;17.70;100.00;99705.58;1691532;85;21352;-77
2021/06/17 03:53:15;;;;;;;8.65;5.00;;;;;;;17.71;100.00;99708.64;1692708;85;21175;-77
2021/06/17 03:56:21;;;;;;;10.78;4.60;;;;;;;17.72;100.00;99710.86;1692639;85;21317;-77
2021/06/17 03:59:29;;;;;;;8.20;4.37;;;;;;;17.76;100.00;99712.95;1669490;85;21800;-77
2021/06/17 04:02:36;;;;;;;9.53;4.80;;;;;;;17.78;100.00;99706.63;1665197;85;21234;-77
2021/06/17 04:05:42;;;;;;;10.80;5.22;;;;;;;17.81;100.00;99703.39;1664686;86;21924;-77
2021/06/17 04:08:50;;;;;;;9.95;4.92;;;;;;;17.82;100.00;99716.14;1672902;85;21275;-77
2021/06/17 04:11:56;;;;;;;16.00;5.62;;;;;;;17.84;100.00;99707.62;1692415;85;21344;-78
2021/06/17 04:15:03;;;;;;;7.58;4.20;;;;;;;17.84;100.00;99695.17;1682710;85;21179;-77
2021/06/17 04:18:09;;;;;;;7.72;5.03;;;;;;;17.84;100.00;99696.02;1664979;86;21320;-78
2021/06/17 04:21:15;;;;;;;8.23;5.12;;;;;;;17.85;100.00;99699.62;1678738;85;21313;-78
2021/06/17 04:24:20;;;;;;;13.98;5.87;;;;;;;17.84;100.00;99684.11;1678269;84;21390;-77
2021/06/17 04:27:26;;;;;;;7.55;5.40;;;;;;;17.85;100.00;99681.64;1697880;84;21237;-77
2021/06/17 04:30:33;;;;;;;8.43;5.15;;;;;;;17.84;100.00;99687.72;1696659;84;21340;-77
2021/06/17 04:33:38;;;;;;;11.75;5.97;;;;;;;17.84;100.00;99679.95;1675289;85;21315;-77
2021/06/17 04:36:45;;;;;;;11.95;5.75;;;;;;;17.82;100.00;99691.78;1669676;86;21216;-78
2021/06/17 04:39:51;;;;;;;9.73;5.15;;;;;;;17.81;100.00;99695.64;1669179;86;21382;-77
2021/06/17 04:42:57;;;;;;;7.83;5.00;;;;;;;17.80;100.00;99708.62;1670090;84;21335;-77
2021/06/17 04:46:03;;;;;;;13.43;6.05;;;;;;;17.80;100.00;99717.47;1664788;86;21176;-77
2021/06/17 04:49:13;;;;;;;7.80;5.47;;;;;;;17.80;100.00;99707.80;1657955;85;21385;-78
2021/06/17 04:52:42;;;;;;;10.28;5.05;;;;;;;17.82;100.00;99727.20;1670295;84;21248;-77
2021/06/17 04:55:59;;;;;;;14.10;6.03;;;;;;;17.84;100.00;99743.59;1669884;84;21318;-77
2021/06/17 04:59:03;;;;;;;8.30;5.50;;;;;;;17.85;100.00;99749.41;1669432;86;21322;-77
2021/06/17 05:02:08;;;;;;;13.00;5.97;;;;;;;17.83;100.00;99759.34;1692255;84;21336;-77
2021/06/17 05:05:14;;;;;;;13.25;5.85;;;;;;;17.84;100.00;99771.25;1690485;84;21474;-77
2021/06/17 05:11:25;;;;;;;9.40;5.53;;;;;;;17.85;100.00;99786.22;1664753;85;21337;-77
2021/06/17 05:14:34;;;;;;;16.17;5.83;;;;;;;17.86;100.00;99793.42;1667427;84;21203;-77
2021/06/17 05:17:40;;;;;;;8.15;4.70;;;;;;;17.88;100.00;99802.35;1674396;84;21820;-78
2021/06/17 05:20:46;;;;;;;10.25;5.92;;;;;;;17.93;100.00;99814.64;1650906;86;21356;-77
2021/06/17 05:23:51;;;;;;;10.63;5.50;;;;;;;17.94;100.00;99821.30;1677610;83;21338;-78
2021/06/17 05:26:57;;;;;;;15.60;6.10;;;;;;;17.95;100.00;99822.98;1723218;81;21355;-78
2021/06/17 05:30:03;;;;;;;13.48;5.42;;;;;;;17.93;100.00;99823.78;1703107;83;21331;-77
2021/06/17 05:33:08;;;;;;;18.82;5.25;;;;;;;17.93;100.00;99828.47;1702906;83;21218;-78
2021/06/17 05:36:13;;;;;;;7.03;5.50;;;;;;;17.91;100.00;99831.45;1705016;83;21312;-77
2021/06/17 05:39:18;;;;;;;9.05;5.05;;;;;;;17.89;100.00;99828.09;1703337;83;21300;-78
2021/06/17 05:42:24;;;;;;;8.35;5.28;;;;;;;17.87;100.00;99831.07;1718577;81;21327;-79
2021/06/17 05:45:29;;;;;;;10.60;5.53;;;;;;;17.87;100.00;99820.55;1714543;82;21812;-77
2021/06/17 05:48:36;;;;;;;12.30;5.72;;;;;;;17.85;100.00;99815.80;1718098;81;21335;-78
2021/06/17 05:51:41;;;;;;;10.05;5.80;;;;;;;17.83;100.00;99811.03;1703384;82;21746;-78
2021/06/17 05:54:46;;;;;;;8.88;5.75;;;;;;;17.83;100.00;99811.03;1728623;81;21640;-78
2021/06/17 05:57:53;;;;;;;10.95;5.90;;;;;;;17.81;100.00;99771.16;1721814;82;21292;-78
2021/06/17 06:00:59;;;;;;;12.78;6.10;;;;;;;17.81;100.00;99774.47;1718467;81;21304;-78
2021/06/17 06:04:04;;;;;;;6.80;5.08;;;;;;;17.81;100.00;99759.26;1722318;82;21315;-78
2021/06/17 06:07:09;;;;;;;10.15;5.90;;;;;;;17.81;100.00;99747.66;1720709;82;21331;-78
2021/06/17 06:10:18;;;;;;;9.93;5.92;;;;;;;17.84;100.00;99743.59;1722223;82;21934;-77
2021/06/17 06:13:24;;;;;;;10.10;6.50;;;;;;;17.84;100.00;99718.69;1724738;82;21191;-78
2021/06/17 06:16:30;;;;;;;13.83;6.05;;;;;;;17.84;100.00;99693.79;1727613;82;21700;-78
2021/06/17 06:19:36;;;;;;;13.58;5.20;;;;;;;17.85;100.00;99697.69;1718802;81;21327;-78
2021/06/17 06:22:44;;;;;;;8.05;5.12;;;;;;;17.86;100.00;99707.67;1726551;82;21340;-78
2021/06/17 06:25:50;;;;;;;7.40;4.62;;;;;;;17.90;100.00;99699.74;1718127;82;21288;-78
2021/06/17 06:28:56;;;;;;;9.20;5.08;;;;;;;17.94;100.00;99687.12;1761424;80;21304;-78
2021/06/17 06:32:02;;;;;;;7.72;4.85;;;;;;;17.99;100.00;99681.70;1762464;79;21343;-78
2021/06/17 06:35:10;;;;;;;5.03;4.25;;;;;;;18.04;100.00;99679.06;1762268;80;21375;-77
2021/06/17 06:38:16;;;;;;;11.05;4.65;;;;;;;18.10;100.00;99680.02;1758204;80;21308;-79
2021/06/17 06:41:23;;;;;;;8.63;4.72;;;;;;;18.13;100.00;99677.62;1763907;80;21162;-78
2021/06/17 06:44:29;;;;;;;7.53;4.50;;;;;;;18.21;100.00;99678.31;1761447;80;21162;-77
2021/06/17 06:47:35;;;;;;;9.33;5.67;;;;;;;18.28;100.00;99665.21;1756436;79;21842;-77
2021/06/17 06:50:41;;;;;;;8.30;4.20;;;;;;;18.36;100.00;99664.84;1758373;80;21520;-79
2021/06/17 06:53:47;;;;;;;5.05;4.10;;;;;;;18.48;100.00;99654.58;1757869;80;21217;-79
2021/06/17 06:56:52;;;;;;;4.97;3.83;;;;;;;18.61;100.00;99655.69;1760644;80;21284;-79
2021/06/17 06:59:58;;;;;;;4.85;3.85;;;;;;;18.70;100.00;99668.66;1765187;80;21318;-78
2021/06/17 07:03:03;;;;;;;7.55;4.78;;;;;;;18.79;100.00;99678.81;1765355;80;21208;-79
2021/06/17 07:06:08;;;;;;;5.75;4.50;;;;;;;18.87;100.00;99688.13;1760513;80;21474;-79
2021/06/17 07:09:15;;;;;;;7.37;4.85;;;;;;;18.97;100.00;99699.42;1763606;80;21350;-78
2021/06/17 07:12:20;;;;;;;6.92;4.58;;;;;;;19.02;100.00;99721.69;1763385;80;21783;-78
2021/06/17 07:15:25;;;;;;;9.68;5.45;;;;;;;19.05;100.00;99718.41;1761870;79;21181;-78
2021/06/17 07:18:30;;;;;;;7.60;5.72;;;;;;;19.12;100.00;99681.70;1764334;80;21827;-78
2021/06/17 07:21:35;;;;;;;6.12;4.97;;;;;;;19.25;100.00;99718.55;1764694;80;21216;-78
2021/06/17 07:24:42;;;;;;;6.83;5.35;;;;;;;19.37;100.00;99706.84;1764371;80;22406;-78
2021/06/17 07:27:50;;;;;;;10.72;5.05;;;;;;;19.51;100.00;99715.14;1773151;80;21196;-77
2021/06/17 07:30:55;;;;;;;6.58;4.90;;;;;;;19.64;100.00;99702.94;1777545;80;21282;-77
2021/06/17 07:34:00;;;;;;;6.35;4.80;;;;;;;19.78;100.00;99706.23;1773851;79;21875;-77
2021/06/17 07:37:06;;;;;;;8.13;5.00;;;;;;;19.95;100.00;99700.14;1773271;79;21283;-77
2021/06/17 07:40:16;;;;;;;11.40;4.92;;;;;;;20.14;100.00;99691.84;1765432;80;21318;-77
2021/06/17 07:43:21;;;;;;;9.50;5.00;;;;;;;20.38;100.00;99692.48;1771680;80;21878;-77
2021/06/17 07:46:25;;;;;;;8.93;4.80;;;;;;;20.58;100.00;99701.67;1771990;80;21288;-78
2021/06/17 07:49:30;;;;;;;9.53;4.30;;;;;;;20.66;100.00;99710.13;1763712;80;21145;-77
2021/06/17 07:52:35;;;;;;;8.80;4.75;;;;;;;20.66;97.75;99710.13;1766848;80;21166;-77
2021/06/17 07:55:42;;;;;;;6.55;3.77;;;;;;;20.71;97.34;99712.97;1767979;79;21384;-78
2021/06/17 07:58:47;;;;;;;7.67;4.75;;;;;;;20.78;97.26;99714.16;1767967;80;21256;-78
2021/06/17 08:01:53;;;;;;;5.50;4.53;;;;;;;20.92;97.71;99712.12;1773535;80;21271;-79
2021/06/17 08:04:59;;;;;;;10.40;4.20;;;;;;;21.11;97.79;99713.19;1762258;80;21244;-76
2021/06/17 08:08:04;;;;;;;6.83;4.37;;;;;;;21.24;95.54;99735.59;1767282;80;21270;-77
2021/06/17 08:11:09;;;;;;;19.23;5.22;;;;;;;21.31;93.84;99719.55;1768298;80;21288;-77
2021/06/17 08:14:21;;;;;;;9.83;4.47;;;;;;;21.40;94.05;99730.50;1762221;80;21295;-78
2021/06/17 08:17:24;;;;;;;9.75;4.05;;;;;;;21.52;92.18;99695.03;1765863;80;21287;-78
2021/06/17 08:20:30;;;;;;;5.97;4.17;;;;;;;21.69;91.51;99719.42;1770087;80;21751;-78
2021/06/17 08:23:35;;;;;;;6.00;3.40;;;;;;;21.86;91.16;99725.41;1764890;80;21306;-78
2021/06/17 08:26:40;;;;;;;5.03;3.30;;;;;;;21.97;89.74;99711.02;1764060;80;21204;-78
2021/06/17 08:29:47;;;;;;;8.15;3.12;;;;;;;22.10;89.18;99696.09;1758713;80;21279;-78
2021/06/17 08:32:52;;;;;;;5.33;3.00;;;;;;;22.25;87.17;99727.42;1762536;80;21294;-78
2021/06/17 08:36:00;;;;;;;8.10;3.00;;;;;;;22.42;85.63;99717.52;1761066;81;21303;-78
2021/06/17 08:42:15;;;;;;;5.30;2.67;;;;;;;22.83;82.87;99737.28;1845815;76;28430;-78
2021/06/17 08:45:21;;;;;;;4.85;2.40;;;;;;;22.84;82.02;99734.77;1818205;77;21287;-78
2021/06/17 08:48:32;;;;;;;4.85;3.08;;;;;;;22.81;80.64;99733.91;1826196;77;21224;-78
2021/06/17 08:51:42;;;;;;;6.90;2.62;;;;;;;22.92;83.07;99750.47;1725071;80;22485;-77
2021/06/17 08:54:50;;;;;;;5.00;2.65;;;;;;;23.01;80.34;99753.58;1748867;80;21297;-78
2021/06/17 08:58:00;;;;;;;3.17;2.30;;;;;;;22.97;79.77;99748.27;1705631;81;21259;-78
2021/06/17 09:01:20;;;;;;;2.83;2.30;;;;;;;22.89;78.34;99746.81;1726132;80;21906;-77
2021/06/17 09:04:31;;;;;;;4.25;2.47;;;;;;;22.80;79.59;99757.33;1737063;80;21346;-78
2021/06/17 09:07:40;;;;;;;4.53;2.65;;;;;;;22.82;79.75;99735.58;1756701;80;21298;-79
2021/06/17 09:10:46;;;;;;;6.10;2.62;;;;;;;22.92;79.87;99753.81;1769253;78;21644;-78
2021/06/17 09:13:52;;;;;;;3.77;2.05;;;;;;;23.00;77.60;99743.52;1759729;80;21336;-77
2021/06/17 09:17:13;;;;;;;6.65;2.10;;;;;;;23.08;77.09;99751.36;1758472;80;21250;-78
2021/06/17 09:20:19;;;;;;;6.75;2.30;;;;;;;23.19;77.75;99739.12;1756365;80;21320;-78
2021/06/17 09:23:44;;;;;;;2.60;2.00;;;;;;;23.31;76.22;99750.63;1786877;79;21677;-77
2021/06/17 09:26:50;;;;;;;11.15;2.10;;;;;;;23.39;74.84;99773.82;1783334;79;21335;-78
2021/06/17 09:29:59;;;;;;;2.00;1.72;;;;;;;23.39;73.51;99765.45;1749909;80;21298;-78
2021/06/17 09:33:10;;;;;;;3.75;2.10;;;;;;;23.33;74.58;99765.13;1746464;80;21502;-78
2021/06/17 09:36:12;;;;;;;3.92;1.98;;;;;;;23.28;74.39;99776.27;1743195;80;21296;-77
2021/06/17 09:39:28;;;;;;;4.28;2.08;;;;;;;23.26;75.29;99786.88;1726072;81;21592;-77
2021/06/17 09:42:38;;;;;;;6.08;2.30;;;;;;;23.21;75.26;99792.72;1740642;81;21298;-78
2021/06/17 09:45:46;;;;;;;7.12;2.08;;;;;;;23.15;74.90;99798.00;1730987;82;21183;-78
2021/06/17 09:48:53;;;;;;;5.35;2.00;;;;;;;23.11;74.27;99797.42;1732072;82;21242;-77
2021/06/17 09:51:59;;;;;;;2.37;1.98;;;;;;;23.15;75.37;99792.42;1728778;82;21309;-77
2021/06/17 09:55:04;;;;;;;4.10;1.95;;;;;;;23.26;75.06;99789.67;1693016;81;21862;-77
2021/06/17 09:58:22;;;;;;;4.83;2.20;;;;;;;23.30;72.45;99795.83;1730253;82;21569;-77
2021/06/17 10:01:42;;;;;;;3.55;2.15;;;;;;;23.25;71.96;99792.19;1735322;81;21141;-78
2021/06/17 10:05:22;;;;;;;4.62;1.85;;;;;;;23.09;73.75;99796.27;1679780;82;21149;-78
2021/06/17 10:08:24;;;;;;;5.95;2.22;;;;;;;22.94;74.62;99797.03;1731184;82;21323;-78
2021/06/17 10:11:30;;;;;;;5.87;2.22;;;;;;;22.86;76.59;99788.30;1728712;81;21358;-78
2021/06/17 10:14:36;;;;;;;3.30;2.15;;;;;;;22.85;77.92;99790.81;1727557;82;21377;-77
2021/06/17 10:17:41;;;;;;;4.78;2.67;;;;;;;22.82;78.67;99790.81;1713703;82;21849;-81
2021/06/17 10:20:49;;;;;;;10.38;2.33;;;;;;;22.82;78.31;99782.45;1733965;82;21292;-77
2021/06/17 10:23:56;;;;;;;8.38;3.15;;;;;;;22.85;79.02;99780.49;1708115;82;21300;-77
2021/06/17 10:27:08;;;;;;;9.35;2.12;;;;;;;22.87;80.38;99793.63;1747387;81;21326;-77
2021/06/17 10:30:14;;;;;;;3.02;2.02;;;;;;;22.83;80.33;99786.91;1690625;82;21377;-77
2021/06/17 10:33:39;;;;;;;4.97;2.42;;;;;;;22.79;80.59;99785.77;1762061;81;21316;-77
2021/06/17 10:36:45;;;;;;;6.10;2.20;;;;;;;22.79;81.36;99798.87;1729047;82;21314;-77
2021/06/17 10:40:04;;;;;;;3.10;2.10;;;;;;;22.84;81.88;99805.31;1763788;80;22589;-77
2021/06/17 10:43:13;;;;;;;3.85;1.95;;;;;;;22.87;82.36;99820.12;1740918;80;21191;-77
2021/06/17 10:46:20;;;;;;;3.40;1.77;;;;;;;22.87;83.32;99827.09;1737076;82;21292;-77
2021/06/17 10:49:46;;;;;;;6.37;2.33;;;;;;;22.86;82.44;99830.96;1735863;82;21305;-77
2021/06/17 10:52:53;;;;;;;3.47;1.70;;;;;;;22.90;83.54;99815.41;1726937;82;21283;-76
2021/06/17 10:56:08;;;;;;;3.70;1.87;;;;;;;22.96;82.83;99824.67;1754672;81;21292;-77
2021/06/17 10:59:14;;;;;;;3.42;2.02;;;;;;;22.98;83.01;99832.20;1752515;81;21860;-76
2021/06/17 11:02:20;;;;;;;4.28;2.35;;;;;;;22.97;83.62;99849.21;1728844;82;21185;-76
2021/06/17 11:05:47;;;;;;;8.28;2.37;;;;;;;22.95;84.21;99834.13;1752830;81;21166;-77
2021/06/17 11:08:53;;;;;;;4.90;2.25;;;;;;;22.91;84.65;99828.27;1734507;81;21272;-77
2021/06/17 11:11:59;;;;;;;3.27;2.05;;;;;;;22.89;83.34;99834.65;1757405;81;21288;-77
2021/06/17 11:15:08;;;;;;;8.45;2.30;;;;;;;22.91;84.20;99838.55;1729669;82;21343;-77
2021/06/17 11:18:13;;;;;;;7.40;2.58;;;;;;;22.95;84.67;99855.03;1756077;81;21275;-77
2021/06/17 11:21:35;;;;;;;5.20;1.80;;;;;;;22.86;83.43;99863.58;1755289;81;21224;-77
2021/06/17 11:24:41;;;;;;;5.20;1.80;;;;;;;22.83;84.19;99871.95;1727139;82;21363;-77
2021/06/17 11:28:17;;;;;;;5.47;2.20;;;;;;;22.84;84.19;99866.66;1727605;81;21196;-76
2021/06/17 11:31:24;;;;;;;3.92;2.02;;;;;;;22.88;84.00;99874.77;1729772;81;21303;-77
2021/06/17 11:34:45;;;;;;;5.05;2.17;;;;;;;22.89;82.79;99866.72;1721225;82;21322;-76
2021/06/17 11:37:50;;;;;;;3.70;1.75;;;;;;;22.93;82.69;99870.66;1733655;82;21393;-77
2021/06/17 11:40:56;;;;;;;5.87;2.00;;;;;;;22.96;81.92;99870.69;1727589;82;21324;-77
2021/06/17 11:44:10;;;;;;;4.22;1.90;;;;;;;23.04;81.82;99858.16;1743493;81;21316;-77
2021/06/17 11:47:20;;;;;;;3.60;1.90;;;;;;;23.16;81.55;99848.48;1734150;81;21299;-77
2021/06/17 11:50:27;;;;;;;6.03;2.37;;;;;;;23.25;82.20;99864.16;1727121;81;21281;-76
2021/06/17 11:53:34;;;;;;;3.67;2.17;;;;;;;23.09;81.12;99850.66;1700932;82;21882;-78
2021/06/17 11:56:40;;;;;;;3.90;2.50;;;;;;;22.64;80.55;99863.16;1738454;82;21267;-78
2021/06/17 11:59:51;;;;;;;4.22;2.62;;;;;;;22.06;80.50;99889.03;1742166;82;21299;-77
2021/06/17 12:02:54;;;;;;;5.45;3.02;;;;;;;21.72;81.34;99880.02;1763120;81;21363;-77
2021/06/17 12:06:01;;;;;;;4.62;2.65;;;;;;;21.43;83.62;99874.11;1731674;82;21326;-77
2021/06/17 12:09:15;;;;;;;5.97;2.50;;;;;;;21.21;84.89;99875.98;1763901;81;21300;-77
2021/06/17 12:12:27;;;;;;;5.53;2.70;;;;;;;21.14;87.09;99865.06;1737454;82;21888;-78
2021/06/17 12:15:37;;;;;;;6.58;2.92;;;;;;;21.14;88.06;99873.95;1758168;79;21299;-77
2021/06/17 12:18:47;;;;;;;6.33;2.95;;;;;;;21.18;88.96;99855.11;1762635;80;21284;-77
2021/06/17 12:21:52;;;;;;;4.03;2.85;;;;;;;21.20;89.48;99863.19;1737823;82;21186;-77
2021/06/17 12:24:58;;;;;;;8.78;2.90;;;;;;;21.28;90.31;99864.69;1754775;81;21736;-77
2021/06/17 12:28:07;;;;;;;4.70;3.10;;;;;;;21.40;90.90;99855.69;1759976;81;21343;-77
2021/06/17 12:31:14;;;;;;;4.90;2.67;;;;;;;21.64;91.73;99866.00;1755980;81;21295;-77
2021/06/17 12:34:21;;;;;;;4.12;2.33;;;;;;;22.01;92.41;99872.27;1721650;81;21347;-77
2021/06/17 12:37:26;;;;;;;3.87;2.70;;;;;;;22.37;92.32;99876.30;1745451;81;21283;-77
2021/06/17 12:40:48;;;;;;;5.53;2.83;;;;;;;22.65;85.59;99875.15;1770120;81;21243;-77
2021/06/17 12:44:02;;;;;;;9.75;2.90;;;;;;;22.82;83.55;99883.34;1747317;80;21232;-77
2021/06/17 12:47:16;;;;;;;7.83;2.45;;;;;;;22.92;82.72;99891.29;1741704;82;21361;-77
2021/06/17 12:53:32;;;;;;;5.17;3.00;;;;;;;22.82;80.31;99893.11;1720837;81;21862;-77
2021/06/17 12:56:37;;;;;;;5.80;2.52;;;;;;;22.63;81.37;99892.16;1747627;81;21296;-77
2021/06/17 12:59:53;;;;;;;8.18;2.92;;;;;;;22.48;81.89;99895.34;1738483;82;21236;-77
2021/06/17 13:02:59;;;;;;;4.30;2.55;;;;;;;22.33;82.26;99890.46;1733943;82;21250;-77
2021/06/17 13:06:07;;;;;;;5.85;3.00;;;;;;;22.20;83.42;99891.72;1767142;81;21312;-77
2021/06/17 13:09:27;;;;;;;5.20;2.85;;;;;;;22.13;83.88;99900.30;1740731;82;21795;-78
2021/06/17 13:12:34;;;;;;;6.67;2.80;;;;;;;22.07;84.71;99904.66;1759325;81;21281;-77
2021/06/17 13:15:41;;;;;;;5.15;3.02;;;;;;;22.05;85.13;99906.30;1736729;82;21265;-76
2021/06/17 13:18:48;;;;;;;4.50;3.55;;;;;;;22.08;85.87;99914.14;1763113;81;21295;-76
2021/06/17 13:21:58;;;;;;;9.48;3.20;;;;;;;22.15;85.27;99934.84;1700015;82;21311;-77
2021/06/17 13:25:13;;;;;;;3.92;2.80;;;;;;;22.20;85.27;99924.59;1750296;81;21240;-77
2021/06/17 13:28:41;;;;;;;4.15;3.15;;;;;;;22.19;84.50;99927.09;1744023;81;21768;-77
2021/06/17 13:31:50;;;;;;;6.62;2.75;;;;;;;22.11;85.03;99930.38;1762012;80;21284;-77
2021/06/17 13:34:55;;;;;;;4.83;2.92;;;;;;;21.94;83.50;99940.70;1759689;80;21169;-78
2021/06/17 13:38:01;;;;;;;4.83;2.72;;;;;;;21.75;83.21;99957.45;1757815;81;21225;-77
2021/06/17 13:41:07;;;;;;;5.60;2.80;;;;;;;21.55;82.56;99974.17;1712986;82;21289;-77
2021/06/17 13:44:14;;;;;;;5.90;2.85;;;;;;;21.48;83.21;99960.97;1719922;81;21334;-78
2021/06/17 13:47:19;;;;;;;5.53;2.87;;;;;;;21.47;84.03;99950.11;1685974;84;21241;-77
2021/06/17 13:50:25;;;;;;;4.15;2.65;;;;;;;21.48;84.88;99937.32;1713622;83;21196;-78
2021/06/17 13:53:30;;;;;;;6.50;3.20;;;;;;;21.53;85.62;99936.00;1740390;82;21235;-78
2021/06/17 13:56:36;;;;;;;6.35;3.05;;;;;;;21.58;84.27;99940.23;1740010;82;21390;-78
2021/06/17 13:59:44;;;;;;;3.33;2.40;;;;;;;21.67;82.02;99949.83;1739924;82;21370;-78
2021/06/17 14:02:51;;;;;;;4.03;2.47;;;;;;;21.72;80.17;99935.14;1739884;82;21319;-78
2021/06/17 14:05:57;;;;;;;3.40;1.90;;;;;;;21.75;77.46;99937.97;1738935;82;21342;-78
2021/06/17 14:09:02;;;;;;;2.92;2.08;;;;;;;21.76;76.59;99948.83;1739789;82;21185;-76
2021/06/17 14:12:08;;;;;;;3.95;1.87;;;;;;;21.71;76.72;99946.53;1738397;82;21236;-77
2021/06/17 14:15:18;;;;;;;4.03;2.12;;;;;;;21.68;76.16;99954.84;1739355;82;21938;-77
2021/06/17 14:18:26;;;;;;;3.90;2.00;;;;;;;21.63;75.49;99957.55;1739836;82;22554;-77
2021/06/17 14:21:31;;;;;;;4.33;1.80;;;;;;;21.58;76.77;99954.16;1739847;82;21201;-77
2021/06/17 14:24:36;;;;;;;3.20;2.00;;;;;;;21.58;76.86;99949.98;1739755;82;21910;-77
2021/06/17 14:27:44;;;;;;;2.58;2.10;;;;;;;21.62;76.96;99955.33;1739944;82;21380;-77
2021/06/17 14:30:52;;;;;;;3.75;1.92;;;;;;;21.57;77.08;99965.00;1739650;82;21339;-77
2021/06/17 14:33:58;;;;;;;2.47;2.00;;;;;;;21.50;78.64;99954.63;1739990;82;21308;-77
2021/06/17 14:37:06;;;;;;;3.83;2.05;;;;;;;21.45;78.97;99961.47;1739883;82;21351;-77
2021/06/17 14:40:14;;;;;;;9.00;2.55;;;;;;;21.33;78.85;99951.02;1740147;82;21851;-77
2021/06/17 14:43:19;;;;;;;3.33;2.20;;;;;;;21.29;80.08;99949.27;1740175;82;21308;-77
2021/06/17 14:46:25;;;;;;;3.70;2.15;;;;;;;21.29;80.97;99940.08;1737804;82;21338;-77
2021/06/17 14:49:31;;;;;;;6.28;2.00;;;;;;;21.36;81.19;99940.75;1739816;82;21833;-77